Time;durP1;ratioP1;P1;durP2;ratioP2;P2;SDS_P1;SDS_P2;PMS_P1;PMS_P2;Temp;Humidity;BMP_temperature;BMP_pressure;BME280_temperature;BME280_humidity;BME280_pressure;Samples;Min_cycle;Max_cycle;Signal;HPM_P1;HPM_P2
2022/11/07 07:24:16;;;;;;;2.10;1.90;;;8.60;99.90;;;;;;5137045;27;20288;-81
2022/11/07 07:26:41;;;;;;;2.73;1.97;;;8.60;99.90;;;;;;5135524;28;20248;-81
2022/11/07 07:29:07;;;;;;;2.63;1.70;;;8.60;99.90;;;;;;5136497;27;20177;-81
2022/11/07 07:31:33;;;;;;;2.13;1.60;;;8.80;99.90;;;;;;5136520;27;20166;-80
2022/11/07 07:33:59;;;;;;;2.03;1.90;;;8.80;99.90;;;;;;5135011;28;20259;-81
2022/11/07 07:36:25;;;;;;;1.60;1.40;;;8.90;99.90;;;;;;5134875;28;20181;-80
2022/11/07 07:38:50;;;;;;;2.20;1.77;;;9.00;99.90;;;;;;5136280;27;20215;-81
2022/11/07 07:41:17;;;;;;;2.60;1.73;;;9.20;99.90;;;;;;5134785;27;20260;-81
2022/11/07 07:43:43;;;;;;;2.80;1.60;;;9.40;99.90;;;;;;5134652;27;20212;-82
2022/11/07 07:46:13;;;;;;;4.07;1.47;;;9.80;99.90;;;;;;5138061;27;20179;-82
2022/11/07 07:48:39;;;;;;;2.03;1.50;;;10.20;99.90;;;;;;5136243;27;20158;-81
2022/11/07 07:51:04;;;;;;;2.90;1.87;;;10.60;99.90;;;;;;5135922;27;20227;-81
2022/11/07 07:53:30;;;;;;;2.13;1.30;;;11.10;99.90;;;;;;5135491;27;20204;-81
2022/11/07 07:55:57;;;;;;;2.60;1.03;;;11.10;99.90;;;;;;5134452;28;20736;-80
2022/11/07 07:58:24;;;;;;;2.70;1.43;;;11.30;99.90;;;;;;5135484;27;20179;-80
2022/11/07 08:00:56;;;;;;;4.63;1.50;;;11.30;99.90;;;;;;5136712;27;20193;-82
2022/11/07 08:03:22;;;;;;;4.33;3.30;;;11.60;99.90;;;;;;5136029;27;20228;-82
2022/11/07 08:05:55;;;;;;;9.87;5.77;;;12.20;99.90;;;;;;5137003;28;20258;-81
2022/11/07 08:08:22;;;;;;;8.07;5.43;;;12.50;99.90;;;;;;5137063;28;20270;-81
2022/11/07 08:10:53;;;;;;;12.60;8.10;;;12.60;99.90;;;;;;5138343;27;20175;-81
2022/11/07 08:13:23;;;;;;;17.00;9.63;;;13.00;99.90;;;;;;5137519;27;20190;-82
2022/11/07 08:15:49;;;;;;;26.37;14.20;;;13.50;99.90;;;;;;5137045;27;20163;-81
2022/11/07 08:18:15;;;;;;;19.20;10.00;;;14.00;99.90;;;;;;5135112;28;20186;-79
2022/11/07 08:20:41;;;;;;;5.20;3.30;;;14.40;99.90;;;;;;5134986;27;20175;-83
2022/11/07 08:23:08;;;;;;;2.83;1.43;;;14.60;99.90;;;;;;5134312;28;20211;-81
2022/11/07 08:25:34;;;;;;;33.50;16.90;;;14.80;99.90;;;;;;5135573;27;20163;-82
2022/11/07 08:28:00;;;;;;;4.37;1.60;;;15.00;99.90;;;;;;5134767;28;20557;-81
2022/11/07 08:30:27;;;;;;;2.93;1.37;;;14.80;99.90;;;;;;5135848;28;20256;-81
2022/11/07 08:32:53;;;;;;;1.10;1.00;;;14.70;99.90;;;;;;5148153;27;20201;-80
2022/11/07 08:35:19;;;;;;;3.30;1.10;;;15.00;99.90;;;;;;5127713;28;20221;-81
2022/11/07 08:37:44;;;;;;;2.80;1.50;;;14.90;99.90;;;;;;5121358;28;20185;-81
2022/11/07 08:40:11;;;;;;;2.67;1.13;;;14.90;99.90;;;;;;5121528;27;20177;-80
2022/11/07 08:42:36;;;;;;;1.67;1.00;;;15.50;99.90;;;;;;5120346;28;20299;-81
2022/11/07 08:45:02;;;;;;;0.93;0.83;;;15.50;99.90;;;;;;5121053;27;20712;-82
2022/11/07 08:47:28;;;;;;;0.87;0.87;;;15.60;99.90;;;;;;5121154;28;20654;-82
2022/11/07 08:49:53;;;;;;;2.90;1.60;;;15.20;99.90;;;;;;5121481;28;20175;-81
2022/11/07 08:52:19;;;;;;;1.07;0.90;;;14.50;99.90;;;;;;5121011;28;20181;-81
2022/11/07 08:54:45;;;;;;;2.67;2.17;;;14.50;99.90;;;;;;5120108;28;20252;-83
2022/11/07 08:57:11;;;;;;;1.53;0.97;;;14.80;99.90;;;;;;5120380;28;20394;-81
2022/11/07 08:59:36;;;;;;;1.33;1.10;;;15.20;99.90;;;;;;5119833;28;20526;-80
2022/11/07 09:02:02;;;;;;;1.60;0.90;;;15.40;99.90;;;;;;5120006;28;20190;-80
2022/11/07 09:04:28;;;;;;;0.93;0.83;;;15.10;99.90;;;;;;5121001;28;20200;-81
2022/11/07 09:06:56;;;;;;;5.03;1.20;;;14.80;99.90;;;;;;5120181;28;20188;-81
2022/11/07 09:09:22;;;;;;;1.40;0.90;;;14.60;99.90;;;;;;5122752;28;20189;-82
2022/11/07 09:11:50;;;;;;;1.63;1.40;;;14.60;99.90;;;;;;5121245;28;20687;-81
2022/11/07 09:14:15;;;;;;;1.27;0.90;;;14.80;99.90;;;;;;5120991;28;20734;-80
2022/11/07 09:16:41;;;;;;;1.17;1.03;;;15.00;99.90;;;;;;5121228;28;20197;-80
2022/11/07 09:19:06;;;;;;;1.53;0.90;;;15.50;99.90;;;;;;5121170;28;20172;-81
2022/11/07 09:21:32;;;;;;;2.90;1.10;;;15.50;99.90;;;;;;5122083;28;20167;-81
2022/11/07 09:23:58;;;;;;;3.00;2.43;;;15.80;99.90;;;;;;5123860;28;20210;-81
2022/11/07 09:26:24;;;;;;;2.17;1.50;;;15.90;99.90;;;;;;5121925;28;20650;-82
2022/11/07 09:28:49;;;;;;;0.90;0.70;;;15.60;99.90;;;;;;5128827;28;20194;-81
2022/11/07 09:31:15;;;;;;;1.27;1.17;;;;;;;;;;5132875;28;20201;-81
2022/11/07 09:33:41;;;;;;;1.60;1.17;;;14.50;99.90;;;;;;5134341;28;20224;-81
2022/11/07 09:36:07;;;;;;;1.00;0.90;;;14.30;99.90;;;;;;5120175;28;20183;-81
2022/11/07 09:38:33;;;;;;;2.03;1.30;;;13.70;99.90;;;;;;5120102;28;20200;-80
2022/11/07 09:41:09;;;;;;;1.70;1.10;;;13.60;99.90;;;;;;5119641;28;20513;-83
2022/11/07 09:43:49;;;;;;;2.03;1.63;;;13.60;99.90;;;;;;5117053;28;20296;-80
2022/11/07 09:46:33;;;;;;;1.10;0.80;;;14.00;99.90;;;;;;5117087;28;20173;-79
2022/11/07 09:49:25;;;;;;;1.20;0.93;;;14.40;99.90;;;;;;5117117;28;20185;-80
2022/11/07 09:52:16;;;;;;;2.87;0.80;;;14.50;99.90;;;;;;5117688;28;20168;-81
2022/11/07 09:54:57;;;;;;;1.90;0.97;;;14.40;99.90;;;;;;5117676;27;20286;-80
2022/11/07 09:57:25;;;;;;;1.33;1.13;;;14.20;99.90;;;;;;5119911;28;20609;-81
2022/11/07 09:59:53;;;;;;;3.03;1.50;;;14.10;99.90;;;;;;5119409;28;20238;-81
2022/11/07 10:02:22;;;;;;;4.80;3.70;;;14.00;99.90;;;;;;5117405;28;20250;-81
2022/11/07 10:04:55;;;;;;;1.90;1.10;;;13.90;99.90;;;;;;5117582;28;20188;-82
2022/11/07 10:07:27;;;;;;;2.10;1.00;;;13.70;99.90;;;;;;5117489;28;20186;-81
2022/11/07 10:10:09;;;;;;;1.90;0.93;;;13.60;99.90;;;;;;5118301;28;20510;-80
2022/11/07 10:13:05;;;;;;;1.37;0.90;;;13.60;99.90;;;;;;5117061;28;20183;-81
2022/11/07 10:15:58;;;;;;;1.07;0.90;;;13.60;99.90;;;;;;5119068;28;20164;-81
2022/11/07 10:18:57;;;;;;;2.23;1.20;;;13.60;99.90;;;;;;5116865;28;20180;-81
2022/11/07 10:22:02;;;;;;;0.80;0.80;;;13.70;99.90;;;;;;5116627;28;20175;-80
2022/11/07 10:24:55;;;;;;;1.40;0.93;;;13.70;99.90;;;;;;5109195;28;20223;-80
2022/11/07 10:27:22;;;;;;;2.67;0.87;;;13.70;99.90;;;;;;5117906;28;20530;-79
2022/11/07 10:29:53;;;;;;;2.30;1.60;;;13.60;99.90;;;;;;5116439;28;20207;-80
2022/11/07 10:32:42;;;;;;;1.63;0.93;;;13.70;99.90;;;;;;5117860;28;20169;-80
2022/11/07 10:35:28;;;;;;;2.07;0.90;;;13.90;99.90;;;;;;5119092;27;20161;-83
2022/11/07 10:37:56;;;;;;;3.60;1.40;;;13.90;99.90;;;;;;5119886;28;20182;-81
2022/11/07 10:40:25;;;;;;;1.67;0.77;;;14.10;99.90;;;;;;5118379;28;20176;-81
2022/11/07 10:42:52;;;;;;;1.90;0.90;;;13.80;99.90;;;;;;5116851;28;20297;-79
2022/11/07 10:45:18;;;;;;;1.10;0.90;;;13.70;99.90;;;;;;5117028;28;20210;-82
2022/11/07 10:47:59;;;;;;;2.30;1.10;;;13.60;99.90;;;;;;5116789;28;20541;-80
2022/11/07 10:50:25;;;;;;;1.00;0.73;;;13.80;99.90;;;;;;5118667;28;20162;-81
2022/11/07 10:52:53;;;;;;;1.60;0.90;;;13.90;99.90;;;;;;5116889;28;20690;-81
2022/11/07 10:55:19;;;;;;;2.80;1.10;;;14.00;99.90;;;;;;5119149;28;20526;-81
2022/11/07 10:57:50;;;;;;;2.37;0.97;;;13.80;99.90;;;;;;5116761;28;20219;-80
2022/11/07 11:00:31;;;;;;;2.90;1.13;;;13.80;99.90;;;;;;5118802;28;20170;-82
2022/11/07 11:02:57;;;;;;;2.03;0.90;;;14.00;99.90;;;;;;5116614;28;20306;-83
2022/11/07 11:05:30;;;;;;;2.07;1.03;;;14.00;99.90;;;;;;5116492;28;20208;-80
2022/11/07 11:08:05;;;;;;;1.63;1.03;;;14.10;99.90;;;;;;5117831;28;20173;-81
2022/11/07 11:10:37;;;;;;;1.13;0.90;;;14.10;99.90;;;;;;5118075;28;20178;-83
2022/11/07 11:13:02;;;;;;;1.77;0.97;;;13.90;99.90;;;;;;5117730;28;20212;-81
2022/11/07 11:15:28;;;;;;;4.73;1.70;;;13.90;99.90;;;;;;5118339;28;20185;-79
2022/11/07 11:18:06;;;;;;;1.93;1.20;;;13.90;99.90;;;;;;5119595;28;20273;-81
2022/11/07 11:20:43;;;;;;;2.53;1.17;;;14.00;99.90;;;;;;5117799;28;20180;-81
2022/11/07 11:23:21;;;;;;;2.40;0.83;;;14.00;99.90;;;;;;5118181;28;20231;-80
2022/11/07 11:25:50;;;;;;;2.60;1.00;;;14.10;99.90;;;;;;5117165;28;20178;-82
2022/11/07 11:28:48;;;;;;;1.50;0.87;;;14.10;99.90;;;;;;5116707;28;20272;-81
2022/11/07 11:31:17;;;;;;;1.20;0.90;;;13.80;99.90;;;;;;5115366;28;20181;-79
2022/11/07 11:33:48;;;;;;;2.27;0.90;;;13.90;99.90;;;;;;5118928;28;20192;-81
2022/11/07 11:36:21;;;;;;;2.40;1.23;;;14.10;99.90;;;;;;5119083;28;20184;-81
2022/11/07 11:38:53;;;;;;;1.97;0.90;;;14.10;99.90;;;;;;5118843;28;20504;-80
2022/11/07 11:41:33;;;;;;;2.27;1.17;;;14.60;99.90;;;;;;5117581;28;20624;-81
2022/11/07 11:44:19;;;;;;;3.13;0.80;;;14.70;99.90;;;;;;5115667;28;20209;-80
2022/11/07 11:47:08;;;;;;;2.30;1.00;;;14.80;99.90;;;;;;5117374;28;20168;-81
2022/11/07 11:49:51;;;;;;;1.30;1.00;;;15.00;99.90;;;;;;5116534;28;20201;-82
2022/11/07 11:52:19;;;;;;;1.63;0.97;;;15.50;99.90;;;;;;5115618;28;20618;-81
2022/11/07 11:54:46;;;;;;;2.37;1.00;;;15.50;99.90;;;;;;5116306;28;20198;-82
2022/11/07 11:57:25;;;;;;;2.07;1.00;;;15.90;99.90;;;;;;5116625;28;20178;-81
2022/11/07 12:00:08;;;;;;;1.43;1.10;;;16.50;99.90;;;;;;5115650;28;20188;-81
2022/11/07 12:02:37;;;;;;;3.30;2.13;;;16.30;99.90;;;;;;5116958;28;20190;-80
2022/11/07 12:05:21;;;;;;;2.87;1.57;;;16.30;99.90;;;;;;5119448;28;20180;-81
2022/11/07 12:08:08;;;;;;;2.77;1.50;;;15.90;99.90;;;;;;5118063;28;20744;-81
2022/11/07 12:10:48;;;;;;;1.60;0.67;;;15.70;99.90;;;;;;5121903;28;20178;-82
2022/11/07 12:13:14;;;;;;;2.97;1.80;;;15.40;99.90;;;;;;5122614;28;20195;-81
2022/11/07 12:15:45;;;;;;;5.63;1.97;;;15.50;99.90;;;;;;5122173;28;20187;-80
2022/11/07 12:18:17;;;;;;;1.57;0.90;;;15.00;99.90;;;;;;5121835;28;20225;-80
2022/11/07 12:21:01;;;;;;;6.17;3.73;;;14.70;99.90;;;;;;5121256;28;20188;-79
2022/11/07 12:23:29;;;;;;;11.10;5.50;;;14.50;99.90;;;;;;5122522;28;20203;-82
2022/11/07 12:26:25;;;;;;;7.10;3.37;;;14.60;99.90;;;;;;5122751;28;20200;-82
2022/11/07 12:29:11;;;;;;;1.77;1.20;;;14.40;99.90;;;;;;5117173;28;20184;-81
2022/11/07 12:31:56;;;;;;;4.33;1.93;;;14.50;99.90;;;;;;5129208;28;20172;-81
2022/11/07 12:34:49;;;;;;;4.40;1.40;;;14.40;99.90;;;;;;5132883;27;20222;-80
2022/11/07 12:37:41;;;;;;;1.27;1.03;;;14.50;99.90;;;;;;5119586;28;20649;-80
2022/11/07 12:40:29;;;;;;;1.63;1.00;;;14.40;99.90;;;;;;5118595;28;20195;-80
2022/11/07 12:43:09;;;;;;;1.77;1.20;;;14.20;99.90;;;;;;5121460;28;20234;-81
2022/11/07 12:45:53;;;;;;;0.93;0.80;;;14.10;99.90;;;;;;5122510;28;20171;-80
2022/11/07 12:48:47;;;;;;;1.40;0.93;;;13.80;99.90;;;;;;5123736;27;20217;-80
2022/11/07 12:51:19;;;;;;;1.00;0.90;;;13.70;99.90;;;;;;5124416;28;20572;-82
2022/11/07 12:54:13;;;;;;;1.67;1.00;;;13.70;99.90;;;;;;5123654;28;20191;-81
2022/11/07 12:56:39;;;;;;;2.60;1.13;;;13.70;99.90;;;;;;5123941;28;20634;-82
2022/11/07 12:59:12;;;;;;;2.63;1.20;;;13.70;99.90;;;;;;5126376;28;20199;-81
2022/11/07 13:01:50;;;;;;;3.50;1.00;;;13.60;99.90;;;;;;5125183;28;20647;-80
2022/11/07 13:04:26;;;;;;;1.87;0.90;;;13.60;99.90;;;;;;5125779;28;20196;-80
2022/11/07 13:07:03;;;;;;;4.07;2.00;;;13.60;99.90;;;;;;5120173;28;20240;-79
2022/11/07 13:09:35;;;;;;;5.50;1.97;;;13.70;99.90;;;;;;5121355;28;20155;-81
2022/11/07 13:12:21;;;;;;;2.50;1.30;;;13.80;99.90;;;;;;5119376;28;20176;-81
2022/11/07 13:14:48;;;;;;;1.20;0.87;;;13.70;99.90;;;;;;5121045;28;20199;-81
2022/11/07 13:17:26;;;;;;;2.00;1.10;;;13.70;99.90;;;;;;5120795;28;20169;-80
2022/11/07 13:20:03;;;;;;;0.97;0.83;;;13.60;99.90;;;;;;5119583;28;20614;-80
2022/11/07 13:22:38;;;;;;;1.10;0.87;;;13.50;99.90;;;;;;5121658;28;20665;-81
2022/11/07 13:25:21;;;;;;;1.10;1.00;;;13.50;99.90;;;;;;5130747;28;20219;-81
2022/11/07 13:27:55;;;;;;;2.93;1.00;;;13.40;99.90;;;;;;5125985;28;20259;-79
2022/11/07 13:30:25;;;;;;;1.83;1.20;;;13.40;99.90;;;;;;5118904;28;20177;-80
2022/11/07 13:32:51;;;;;;;3.93;1.10;;;13.40;99.90;;;;;;5118782;28;20200;-81
2022/11/07 13:35:25;;;;;;;0.87;0.80;;;13.40;99.90;;;;;;5118680;28;20660;-81
2022/11/07 13:38:10;;;;;;;1.77;1.17;;;13.30;99.90;;;;;;5118518;28;20266;-79
2022/11/07 13:40:43;;;;;;;3.73;2.03;;;13.20;99.90;;;;;;5119567;28;20632;-81
2022/11/07 13:43:18;;;;;;;2.83;1.80;;;13.20;99.90;;;;;;5118492;28;20208;-79
2022/11/07 13:45:47;;;;;;;1.53;1.13;;;13.20;99.90;;;;;;5119793;28;20156;-82
2022/11/07 13:48:22;;;;;;;1.70;1.00;;;13.20;99.90;;;;;;5119054;28;20164;-83
2022/11/07 13:51:02;;;;;;;2.10;1.60;;;13.10;99.90;;;;;;5117912;28;20172;-83
2022/11/07 13:53:43;;;;;;;5.07;1.77;;;13.10;99.90;;;;;;5118511;28;20199;-80
2022/11/07 13:56:52;;;;;;;1.60;0.90;;;13.00;99.90;;;;;;5118798;28;20169;-81
2022/11/07 13:59:36;;;;;;;2.40;1.03;;;12.90;99.90;;;;;;5094149;28;20211;-80
2022/11/07 14:02:03;;;;;;;1.20;0.90;;;12.90;99.90;;;;;;5118207;28;20671;-81
2022/11/07 14:04:28;;;;;;;7.27;1.77;;;12.90;99.90;;;;;;5118070;28;20213;-81
2022/11/07 14:06:57;;;;;;;3.60;1.70;;;12.90;99.90;;;;;;5117430;28;20165;-81
2022/11/07 14:09:24;;;;;;;1.43;1.00;;;12.90;99.90;;;;;;5116444;28;20243;-80
2022/11/07 14:11:52;;;;;;;4.57;1.50;;;12.90;99.90;;;;;;5117810;28;20178;-79
2022/11/07 14:14:22;;;;;;;4.23;1.57;;;12.90;99.90;;;;;;5115396;28;20217;-81
2022/11/07 14:16:48;;;;;;;3.03;2.33;;;13.00;99.90;;;;;;5118074;28;20156;-80
2022/11/07 14:19:26;;;;;;;3.33;1.27;;;13.10;99.90;;;;;;5116553;28;20240;-78
2022/11/07 14:21:54;;;;;;;2.77;1.10;;;13.10;99.90;;;;;;5114991;28;20217;-78
2022/11/07 14:24:33;;;;;;;3.80;2.23;;;13.20;99.90;;;;;;5116511;28;20656;-78
2022/11/07 14:27:12;;;;;;;4.57;1.93;;;13.20;99.90;;;;;;5115093;28;20177;-78
2022/11/07 14:29:37;;;;;;;2.20;1.63;;;13.30;99.90;;;;;;5116625;28;20177;-78
2022/11/07 14:32:06;;;;;;;2.73;1.30;;;13.30;99.90;;;;;;5118532;28;20239;-82
2022/11/07 14:34:34;;;;;;;3.07;1.23;;;13.30;99.90;;;;;;5117369;28;20187;-81
2022/11/07 14:37:04;;;;;;;1.50;1.00;;;13.40;99.90;;;;;;5117188;28;20203;-81
2022/11/07 14:39:32;;;;;;;1.43;1.10;;;13.40;99.90;;;;;;5117268;28;20250;-81
2022/11/07 14:42:01;;;;;;;3.90;1.23;;;13.30;99.90;;;;;;5117163;28;20176;-80
2022/11/07 14:44:45;;;;;;;2.80;1.30;;;13.30;99.90;;;;;;5117231;28;20728;-80
2022/11/07 14:47:20;;;;;;;1.40;1.00;;;13.30;99.90;;;;;;5118611;28;20163;-80
2022/11/07 14:49:48;;;;;;;2.50;1.37;;;13.20;99.90;;;;;;5117415;28;20167;-80
2022/11/07 14:52:21;;;;;;;2.70;1.57;;;13.20;99.90;;;;;;5119803;28;20178;-79
2022/11/07 14:54:52;;;;;;;1.27;1.00;;;13.00;99.90;;;;;;5115407;28;20210;-80
2022/11/07 14:57:18;;;;;;;1.53;1.00;;;13.00;99.90;;;;;;5115623;28;20171;-81
2022/11/07 14:59:44;;;;;;;1.83;0.93;;;13.00;99.90;;;;;;5118367;28;20178;-80
2022/11/07 15:02:21;;;;;;;7.00;1.97;;;12.90;99.90;;;;;;5115305;28;20605;-78
2022/11/07 15:04:47;;;;;;;2.30;1.20;;;12.90;99.90;;;;;;5115608;28;20187;-80
2022/11/07 15:07:21;;;;;;;1.30;0.90;;;12.90;99.90;;;;;;5114931;28;20178;-80
2022/11/07 15:09:47;;;;;;;1.73;1.00;;;12.80;99.90;;;;;;5117765;28;20183;-79
2022/11/07 15:12:22;;;;;;;3.80;1.10;;;12.80;99.90;;;;;;5117682;28;20168;-79
2022/11/07 15:15:00;;;;;;;2.67;1.63;;;12.70;99.90;;;;;;5117406;28;20183;-81
2022/11/07 15:17:26;;;;;;;3.63;1.00;;;12.60;99.90;;;;;;5118053;28;20147;-81
2022/11/07 15:20:04;;;;;;;1.90;1.00;;;12.60;99.90;;;;;;5117998;28;20171;-80
2022/11/07 15:22:38;;;;;;;3.97;1.00;;;12.50;99.90;;;;;;5116113;28;20222;-79
2022/11/07 15:25:31;;;;;;;2.67;1.00;;;12.50;99.90;;;;;;5115299;28;20244;-80
2022/11/07 15:27:57;;;;;;;6.60;1.37;;;12.40;99.90;;;;;;5116062;28;20266;-80
2022/11/07 15:30:29;;;;;;;3.23;1.10;;;12.30;99.90;;;;;;5117705;28;20210;-79
2022/11/07 15:32:55;;;;;;;157.00;59.40;;;12.20;99.90;;;;;;5119441;28;20191;-80
2022/11/07 15:35:21;;;;;;;246.30;120.10;;;12.20;99.90;;;;;;5118062;28;20248;-79
2022/11/07 15:37:52;;;;;;;30.80;17.20;;;12.10;99.90;;;;;;5118587;28;20180;-79
2022/11/07 15:40:18;;;;;;;23.43;9.17;;;12.00;99.90;;;;;;5118315;28;20171;-80
2022/11/07 15:42:44;;;;;;;114.40;63.60;;;11.80;99.90;;;;;;5118359;28;20208;-80
2022/11/07 15:45:10;;;;;;;14.30;7.50;;;11.80;99.90;;;;;;5121102;28;20581;-79
2022/11/07 15:47:36;;;;;;;71.17;39.67;;;11.70;99.90;;;;;;5122831;28;20151;-79
2022/11/07 15:50:02;;;;;;;109.63;57.37;;;11.60;99.90;;;;;;5122984;28;20678;-81
2022/11/07 15:52:28;;;;;;;25.73;14.67;;;11.50;99.90;;;;;;5123357;28;20179;-80
2022/11/07 15:54:54;;;;;;;86.97;50.13;;;11.50;99.90;;;;;;5122899;28;20183;-80
2022/11/07 15:57:19;;;;;;;38.47;23.47;;;11.40;99.90;;;;;;5123757;28;20164;-81
2022/11/07 15:59:45;;;;;;;16.43;10.03;;;11.30;99.90;;;;;;5123057;28;20180;-80
2022/11/07 16:02:15;;;;;;;25.47;12.17;;;11.20;99.90;;;;;;5124389;28;20335;-83
2022/11/07 16:04:42;;;;;;;20.77;6.77;;;11.10;99.90;;;;;;5127285;28;20217;-80
2022/11/07 16:07:18;;;;;;;8.67;4.07;;;11.10;99.90;;;;;;5135657;28;20174;-80
2022/11/07 16:09:47;;;;;;;9.00;3.67;;;11.00;99.90;;;;;;5132358;28;20565;-79
2022/11/07 16:12:16;;;;;;;8.23;3.13;;;10.90;99.90;;;;;;5120060;28;20163;-80
2022/11/07 16:14:42;;;;;;;5.43;2.43;;;10.80;99.90;;;;;;5119944;28;20182;-80
2022/11/07 16:17:18;;;;;;;4.43;2.00;;;10.80;99.90;;;;;;5118000;28;20708;-80
2022/11/07 16:19:44;;;;;;;2.20;1.87;;;10.80;99.90;;;;;;5119428;28;20655;-80
2022/11/07 16:22:11;;;;;;;4.30;2.20;;;10.70;99.90;;;;;;5117670;28;20545;-80
2022/11/07 16:24:37;;;;;;;3.97;2.47;;;10.70;99.90;;;;;;5119139;28;20184;-79
2022/11/07 16:27:03;;;;;;;7.03;2.30;;;10.70;99.90;;;;;;5121583;28;20205;-79
2022/11/07 16:29:29;;;;;;;7.83;2.80;;;10.70;99.90;;;;;;5120144;27;20175;-79
2022/11/07 16:31:55;;;;;;;5.63;2.90;;;10.60;99.90;;;;;;5120265;28;20185;-80
2022/11/07 16:34:20;;;;;;;2.57;2.20;;;10.60;99.90;;;;;;5119834;28;20206;-80
2022/11/07 16:36:47;;;;;;;4.57;2.63;;;10.60;99.90;;;;;;5122637;28;20174;-80
2022/11/07 16:39:22;;;;;;;4.77;2.60;;;10.50;99.90;;;;;;5119558;28;20182;-80
2022/11/07 16:41:49;;;;;;;4.10;2.93;;;10.50;99.90;;;;;;5120294;28;20182;-80
2022/11/07 16:44:15;;;;;;;6.03;3.10;;;10.50;99.90;;;;;;5119731;28;20229;-78
2022/11/07 16:46:41;;;;;;;8.07;4.10;;;10.50;99.90;;;;;;5120569;28;20531;-80
2022/11/07 16:49:30;;;;;;;4.97;3.30;;;10.60;99.90;;;;;;5120315;28;20171;-80
2022/11/07 16:51:57;;;;;;;2.70;1.77;;;10.50;99.90;;;;;;5119669;28;20180;-79
2022/11/07 16:54:22;;;;;;;3.60;1.60;;;10.50;99.90;;;;;;5119144;28;20578;-80
2022/11/07 16:56:51;;;;;;;2.10;1.60;;;10.50;99.90;;;;;;5118778;28;20180;-81
2022/11/07 16:59:19;;;;;;;3.80;1.67;;;10.50;99.90;;;;;;5119115;28;20179;-79
2022/11/07 17:01:45;;;;;;;2.33;1.60;;;10.50;99.90;;;;;;5120733;28;20182;-81
2022/11/07 17:04:11;;;;;;;2.93;1.80;;;10.50;99.90;;;;;;5121134;28;20203;-81
2022/11/07 17:06:42;;;;;;;4.27;1.80;;;10.50;99.90;;;;;;5120740;28;20166;-81
2022/11/07 17:09:10;;;;;;;1.67;1.40;;;10.50;99.90;;;;;;5132520;28;20162;-80
2022/11/07 17:11:36;;;;;;;1.50;1.40;;;10.60;99.90;;;;;;5132868;28;20191;-82
2022/11/07 17:14:02;;;;;;;3.87;1.70;;;10.60;99.90;;;;;;5130025;28;20190;-81
2022/11/07 17:16:29;;;;;;;1.67;1.23;;;10.60;99.90;;;;;;5122124;28;20706;-80
2022/11/07 17:18:55;;;;;;;4.03;1.57;;;10.60;99.90;;;;;;5117988;28;20178;-79
2022/11/07 17:21:35;;;;;;;2.33;1.50;;;10.60;99.90;;;;;;5116408;28;20178;-79
2022/11/07 17:24:02;;;;;;;4.17;1.83;;;10.70;99.90;;;;;;5116265;28;20224;-79
2022/11/07 17:26:34;;;;;;;3.80;1.87;;;10.70;99.90;;;;;;5117432;27;20691;-79
2022/11/07 17:29:01;;;;;;;3.43;1.57;;;10.70;99.90;;;;;;5116192;28;20178;-79
2022/11/07 17:31:27;;;;;;;2.00;1.50;;;10.70;99.90;;;;;;5117413;28;20175;-78
2022/11/07 17:33:52;;;;;;;4.77;2.50;;;10.70;99.90;;;;;;5117352;28;20187;-79
2022/11/07 17:36:23;;;;;;;6.67;5.10;;;10.70;99.90;;;;;;5115750;28;20515;-79
2022/11/07 17:38:50;;;;;;;8.07;7.17;;;10.60;99.90;;;;;;5116113;28;20182;-80
2022/11/07 17:41:16;;;;;;;9.80;6.03;;;10.40;99.90;;;;;;5117454;28;20174;-79
2022/11/07 17:43:43;;;;;;;7.17;4.03;;;10.30;99.90;;;;;;5115777;28;20207;-80
2022/11/07 17:46:20;;;;;;;6.43;5.10;;;10.10;99.90;;;;;;5116312;28;20172;-79
2022/11/07 17:48:47;;;;;;;7.27;4.70;;;10.00;99.90;;;;;;5117209;28;20172;-79
2022/11/07 17:51:13;;;;;;;7.43;4.70;;;9.90;99.90;;;;;;5116297;28;20179;-79
2022/11/07 17:53:39;;;;;;;8.33;5.17;;;9.90;99.90;;;;;;5116847;28;20579;-79
2022/11/07 17:56:11;;;;;;;9.77;5.43;;;9.80;99.90;;;;;;5117191;28;20526;-80
2022/11/07 17:58:37;;;;;;;9.40;5.23;;;9.70;99.90;;;;;;5115673;28;20170;-79
2022/11/07 18:01:03;;;;;;;8.93;5.20;;;9.60;99.90;;;;;;5117184;28;20195;-80
2022/11/07 18:03:29;;;;;;;9.57;5.37;;;9.60;99.90;;;;;;5116302;28;20678;-79
2022/11/07 18:05:54;;;;;;;14.87;5.80;;;9.60;99.90;;;;;;5117944;28;20186;-78
2022/11/07 18:08:20;;;;;;;10.70;5.67;;;9.50;99.90;;;;;;5114823;28;20199;-78
2022/11/07 18:10:46;;;;;;;14.57;7.00;;;9.40;99.90;;;;;;5115690;28;20565;-78
2022/11/07 18:13:13;;;;;;;10.17;6.50;;;9.30;99.90;;;;;;5115772;28;20270;-78
2022/11/07 18:15:39;;;;;;;5.57;4.37;;;9.30;99.90;;;;;;5116937;28;20246;-78
2022/11/07 18:18:04;;;;;;;8.53;5.17;;;9.20;99.90;;;;;;5116343;28;20204;-79
2022/11/07 18:20:30;;;;;;;7.87;4.47;;;9.20;99.90;;;;;;5118147;28;20603;-78
2022/11/07 18:22:56;;;;;;;10.30;5.00;;;9.00;99.90;;;;;;5115330;28;20239;-78
2022/11/07 18:25:21;;;;;;;9.23;5.53;;;9.00;99.90;;;;;;5115886;28;20174;-78
2022/11/07 18:27:47;;;;;;;9.10;5.97;;;8.90;99.90;;;;;;5117100;28;20223;-78
2022/11/07 18:30:13;;;;;;;6.50;4.63;;;8.80;99.90;;;;;;5115553;28;20181;-77
2022/11/07 18:32:39;;;;;;;8.27;4.50;;;8.70;99.90;;;;;;5117362;28;20527;-78
2022/11/07 18:35:05;;;;;;;8.47;4.97;;;8.70;99.90;;;;;;5115767;28;20656;-79
2022/11/07 18:37:31;;;;;;;7.33;4.97;;;8.60;99.90;;;;;;5118282;28;20205;-80
2022/11/07 18:39:56;;;;;;;8.33;4.30;;;8.60;99.90;;;;;;5118909;28;20680;-79
2022/11/07 18:42:22;;;;;;;6.40;3.73;;;8.50;99.90;;;;;;5118276;28;20172;-78
2022/11/07 18:44:47;;;;;;;5.30;3.87;;;8.50;99.90;;;;;;5117982;28;20200;-79
2022/11/07 18:47:13;;;;;;;4.23;3.50;;;8.40;99.90;;;;;;5115792;28;20201;-78
2022/11/07 18:49:39;;;;;;;6.43;3.80;;;8.50;99.90;;;;;;5117715;28;20281;-78
2022/11/07 18:52:04;;;;;;;8.73;4.00;;;8.50;99.90;;;;;;5116663;28;20195;-78
2022/11/07 18:54:30;;;;;;;6.87;4.10;;;8.50;99.90;;;;;;5116728;28;20235;-78
2022/11/07 18:56:56;;;;;;;4.93;4.00;;;8.40;99.90;;;;;;5117831;28;20172;-78
2022/11/07 18:59:21;;;;;;;8.10;4.00;;;8.30;99.90;;;;;;5118133;28;20216;-79
2022/11/07 19:01:47;;;;;;;7.83;5.10;;;8.30;99.90;;;;;;5117586;28;20645;-78
2022/11/07 19:04:12;;;;;;;9.50;5.07;;;8.10;99.90;;;;;;5117428;28;20209;-77
2022/11/07 19:06:54;;;;;;;7.23;5.07;;;8.10;99.90;;;;;;5115904;28;20175;-79
2022/11/07 19:09:20;;;;;;;9.20;5.70;;;8.00;99.90;;;;;;5116214;28;20260;-78
2022/11/07 19:11:46;;;;;;;9.47;5.30;;;7.90;99.90;;;;;;5117553;28;20177;-79
2022/11/07 19:14:12;;;;;;;7.27;5.10;;;;;;;;;;5116341;28;20204;-79
2022/11/07 19:16:38;;;;;;;8.67;5.57;;;7.70;99.90;;;;;;5117332;28;20199;-78
2022/11/07 19:19:04;;;;;;;6.50;4.83;;;7.70;99.90;;;;;;5117049;28;20186;-79
2022/11/07 19:21:30;;;;;;;8.43;6.17;;;7.70;99.90;;;;;;5117659;28;20265;-79
2022/11/07 19:23:55;;;;;;;7.03;6.10;;;7.70;99.90;;;;;;5117800;28;20237;-78
2022/11/07 19:26:23;;;;;;;9.43;5.37;;;7.70;99.90;;;;;;5116995;28;20227;-79
2022/11/07 19:28:49;;;;;;;8.13;4.80;;;7.70;99.90;;;;;;5118810;28;20170;-79
2022/11/07 19:31:15;;;;;;;6.17;4.07;;;7.70;99.90;;;;;;5117779;28;20167;-79
2022/11/07 19:33:41;;;;;;;4.67;4.03;;;7.80;99.90;;;;;;5118131;28;20280;-79
2022/11/07 19:36:13;;;;;;;5.97;3.97;;;7.80;99.90;;;;;;5117605;28;20602;-79
2022/11/07 19:38:39;;;;;;;6.63;3.97;;;7.80;99.90;;;;;;5122112;28;20204;-79
2022/11/07 19:41:06;;;;;;;7.23;4.73;;;7.80;99.90;;;;;;5122216;28;20177;-78
2022/11/07 19:43:33;;;;;;;4.60;3.40;;;7.80;99.90;;;;;;5117062;28;20590;-78
2022/11/07 19:46:04;;;;;;;6.07;3.83;;;7.80;99.90;;;;;;5115189;28;20179;-79
2022/11/07 19:48:29;;;;;;;5.93;3.57;;;7.90;99.90;;;;;;5115301;28;20184;-80
2022/11/07 19:50:55;;;;;;;6.13;3.83;;;7.90;99.90;;;;;;5117139;28;20626;-79
2022/11/07 19:53:20;;;;;;;4.50;3.37;;;7.90;99.90;;;;;;5115231;28;20742;-79
2022/11/07 19:55:46;;;;;;;4.97;3.63;;;8.00;99.90;;;;;;5115663;28;20260;-80
2022/11/07 19:58:12;;;;;;;6.67;4.00;;;7.90;99.90;;;;;;5115509;28;20182;-79
2022/11/07 20:00:38;;;;;;;7.90;4.20;;;8.00;99.90;;;;;;5115820;28;20268;-80
2022/11/07 20:03:03;;;;;;;7.23;3.80;;;7.80;99.90;;;;;;5116904;28;20594;-80
2022/11/07 20:05:33;;;;;;;5.53;3.80;;;7.70;99.90;;;;;;5115531;28;20224;-78
2022/11/07 20:08:00;;;;;;;5.20;3.37;;;7.70;99.90;;;;;;5116286;28;20597;-80
2022/11/07 20:10:27;;;;;;;5.90;3.70;;;7.60;99.90;;;;;;5116249;28;20173;-78
2022/11/07 20:12:53;;;;;;;7.07;3.90;;;7.60;99.90;;;;;;5114735;28;20227;-78
2022/11/07 20:15:18;;;;;;;5.93;3.80;;;7.60;99.90;;;;;;5116901;28;20178;-78
2022/11/07 20:17:44;;;;;;;4.40;3.20;;;7.60;99.90;;;;;;5116567;28;20646;-78
2022/11/07 20:20:10;;;;;;;6.67;3.73;;;7.60;99.90;;;;;;5116744;28;20238;-78
2022/11/07 20:22:36;;;;;;;6.40;4.17;;;7.60;99.90;;;;;;5115653;28;20211;-79
2022/11/07 20:25:06;;;;;;;5.77;4.13;;;7.60;99.90;;;;;;5116446;28;20179;-78
2022/11/07 20:27:33;;;;;;;6.53;4.17;;;7.60;99.90;;;;;;5116346;28;20169;-78
2022/11/07 20:29:58;;;;;;;5.40;3.70;;;7.50;99.90;;;;;;5115381;28;20173;-78